sensor_id;sensor_type;location;lat;lon;timestamp;P1;durP1;ratioP1;P2;durP2;ratioP2
4810;SDS011;2419;51.276;6.472;2022-09-24T00:01:51;6.40;;;4.37;;
4810;SDS011;2419;51.276;6.472;2022-09-24T00:04:19;8.23;;;4.60;;
4810;SDS011;2419;51.276;6.472;2022-09-24T00:06:50;5.97;;;4.40;;
4810;SDS011;2419;51.276;6.472;2022-09-24T00:09:20;8.83;;;4.93;;
4810;SDS011;2419;51.276;6.472;2022-09-24T00:11:49;6.73;;;4.23;;
4810;SDS011;2419;51.276;6.472;2022-09-24T00:14:18;10.03;;;5.03;;
4810;SDS011;2419;51.276;6.472;2022-09-24T00:16:47;5.90;;;4.50;;
4810;SDS011;2419;51.276;6.472;2022-09-24T00:19:15;6.10;;;4.80;;
4810;SDS011;2419;51.276;6.472;2022-09-24T00:21:43;6.73;;;4.43;;
4810;SDS011;2419;51.276;6.472;2022-09-24T00:24:12;7.60;;;5.60;;
4810;SDS011;2419;51.276;6.472;2022-09-24T00:27:03;10.80;;;4.90;;
4810;SDS011;2419;51.276;6.472;2022-09-24T00:29:32;7.57;;;4.97;;
4810;SDS011;2419;51.276;6.472;2022-09-24T00:32:01;7.10;;;4.70;;
4810;SDS011;2419;51.276;6.472;2022-09-24T00:34:31;6.47;;;5.10;;
4810;SDS011;2419;51.276;6.472;2022-09-24T00:36:59;9.53;;;5.10;;
4810;SDS011;2419;51.276;6.472;2022-09-24T00:39:28;6.93;;;4.80;;
4810;SDS011;2419;51.276;6.472;2022-09-24T00:41:56;8.97;;;5.53;;
4810;SDS011;2419;51.276;6.472;2022-09-24T00:47:20;9.80;;;5.57;;
4810;SDS011;2419;51.276;6.472;2022-09-24T00:49:55;7.67;;;4.73;;
4810;SDS011;2419;51.276;6.472;2022-09-24T00:52:31;6.97;;;4.70;;
4810;SDS011;2419;51.276;6.472;2022-09-24T00:55:00;10.80;;;5.50;;
4810;SDS011;2419;51.276;6.472;2022-09-24T00:57:29;8.37;;;4.90;;
4810;SDS011;2419;51.276;6.472;2022-09-24T00:59:59;8.57;;;5.57;;
4810;SDS011;2419;51.276;6.472;2022-09-24T01:02:28;8.87;;;5.07;;
4810;SDS011;2419;51.276;6.472;2022-09-24T01:04:57;7.00;;;4.40;;
4810;SDS011;2419;51.276;6.472;2022-09-24T01:07:26;8.53;;;4.60;;
4810;SDS011;2419;51.276;6.472;2022-09-24T01:09:54;8.07;;;4.97;;
4810;SDS011;2419;51.276;6.472;2022-09-24T01:12:24;7.87;;;5.57;;
4810;SDS011;2419;51.276;6.472;2022-09-24T01:15:04;7.37;;;5.20;;
4810;SDS011;2419;51.276;6.472;2022-09-24T01:17:43;6.70;;;4.73;;
4810;SDS011;2419;51.276;6.472;2022-09-24T01:20:19;7.03;;;5.20;;
4810;SDS011;2419;51.276;6.472;2022-09-24T01:23:10;7.43;;;4.53;;
4810;SDS011;2419;51.276;6.472;2022-09-24T01:25:52;7.77;;;4.70;;
4810;SDS011;2419;51.276;6.472;2022-09-24T01:28:33;8.07;;;5.60;;
4810;SDS011;2419;51.276;6.472;2022-09-24T01:31:15;9.80;;;4.80;;
4810;SDS011;2419;51.276;6.472;2022-09-24T01:33:49;7.63;;;4.03;;
4810;SDS011;2419;51.276;6.472;2022-09-24T01:36:20;5.70;;;3.80;;
4810;SDS011;2419;51.276;6.472;2022-09-24T01:38:51;7.17;;;4.23;;
4810;SDS011;2419;51.276;6.472;2022-09-24T01:41:23;9.07;;;4.87;;
4810;SDS011;2419;51.276;6.472;2022-09-24T01:43:51;8.77;;;5.00;;
4810;SDS011;2419;51.276;6.472;2022-09-24T01:46:21;7.90;;;4.97;;
4810;SDS011;2419;51.276;6.472;2022-09-24T01:48:50;9.07;;;4.23;;
4810;SDS011;2419;51.276;6.472;2022-09-24T01:51:22;7.30;;;5.00;;
4810;SDS011;2419;51.276;6.472;2022-09-24T01:53:56;9.23;;;5.77;;
4810;SDS011;2419;51.276;6.472;2022-09-24T01:56:29;8.63;;;5.03;;
4810;SDS011;2419;51.276;6.472;2022-09-24T01:59:01;8.83;;;5.70;;
4810;SDS011;2419;51.276;6.472;2022-09-24T02:01:40;8.23;;;5.30;;
4810;SDS011;2419;51.276;6.472;2022-09-24T02:04:14;7.07;;;5.10;;
4810;SDS011;2419;51.276;6.472;2022-09-24T02:06:45;7.57;;;5.27;;
4810;SDS011;2419;51.276;6.472;2022-09-24T02:09:30;8.83;;;4.63;;
4810;SDS011;2419;51.276;6.472;2022-09-24T02:12:01;4.43;;;3.87;;
4810;SDS011;2419;51.276;6.472;2022-09-24T02:14:35;7.57;;;5.23;;
4810;SDS011;2419;51.276;6.472;2022-09-24T02:17:08;6.00;;;4.47;;
4810;SDS011;2419;51.276;6.472;2022-09-24T02:19:37;7.60;;;4.00;;
4810;SDS011;2419;51.276;6.472;2022-09-24T02:22:08;6.17;;;3.70;;
4810;SDS011;2419;51.276;6.472;2022-09-24T02:24:40;7.40;;;4.63;;
4810;SDS011;2419;51.276;6.472;2022-09-24T02:27:15;5.93;;;3.60;;
4810;SDS011;2419;51.276;6.472;2022-09-24T02:29:43;6.23;;;4.03;;
4810;SDS011;2419;51.276;6.472;2022-09-24T02:32:14;7.50;;;5.20;;
4810;SDS011;2419;51.276;6.472;2022-09-24T02:34:47;6.80;;;4.23;;
4810;SDS011;2419;51.276;6.472;2022-09-24T02:37:17;8.37;;;5.00;;
4810;SDS011;2419;51.276;6.472;2022-09-24T02:39:46;6.67;;;4.87;;
4810;SDS011;2419;51.276;6.472;2022-09-24T02:42:15;6.27;;;4.53;;
4810;SDS011;2419;51.276;6.472;2022-09-24T02:44:45;6.10;;;4.30;;
4810;SDS011;2419;51.276;6.472;2022-09-24T02:47:15;11.27;;;5.87;;
4810;SDS011;2419;51.276;6.472;2022-09-24T02:49:44;8.60;;;5.40;;
4810;SDS011;2419;51.276;6.472;2022-09-24T02:52:12;9.53;;;5.13;;
4810;SDS011;2419;51.276;6.472;2022-09-24T02:54:40;7.30;;;5.20;;
4810;SDS011;2419;51.276;6.472;2022-09-24T02:57:08;8.23;;;4.57;;
4810;SDS011;2419;51.276;6.472;2022-09-24T02:59:36;7.73;;;5.17;;
4810;SDS011;2419;51.276;6.472;2022-09-24T03:02:05;9.33;;;5.40;;
4810;SDS011;2419;51.276;6.472;2022-09-24T03:04:34;9.03;;;4.97;;
4810;SDS011;2419;51.276;6.472;2022-09-24T03:07:03;7.10;;;4.43;;
4810;SDS011;2419;51.276;6.472;2022-09-24T03:09:31;8.07;;;5.10;;
4810;SDS011;2419;51.276;6.472;2022-09-24T03:12:00;8.00;;;5.53;;
4810;SDS011;2419;51.276;6.472;2022-09-24T03:14:28;8.70;;;5.43;;
4810;SDS011;2419;51.276;6.472;2022-09-24T03:16:56;10.93;;;6.20;;
4810;SDS011;2419;51.276;6.472;2022-09-24T03:19:24;9.90;;;5.00;;
4810;SDS011;2419;51.276;6.472;2022-09-24T03:21:54;8.20;;;4.93;;
4810;SDS011;2419;51.276;6.472;2022-09-24T03:24:22;6.70;;;5.40;;
4810;SDS011;2419;51.276;6.472;2022-09-24T03:26:50;8.20;;;5.53;;
4810;SDS011;2419;51.276;6.472;2022-09-24T03:29:18;7.07;;;4.30;;
4810;SDS011;2419;51.276;6.472;2022-09-24T03:32:07;8.87;;;5.80;;
4810;SDS011;2419;51.276;6.472;2022-09-24T03:34:35;8.90;;;5.60;;
4810;SDS011;2419;51.276;6.472;2022-09-24T03:37:04;8.80;;;4.80;;
4810;SDS011;2419;51.276;6.472;2022-09-24T03:39:34;9.20;;;5.67;;
4810;SDS011;2419;51.276;6.472;2022-09-24T03:42:02;8.67;;;4.70;;
4810;SDS011;2419;51.276;6.472;2022-09-24T03:44:30;11.67;;;5.20;;
4810;SDS011;2419;51.276;6.472;2022-09-24T03:46:58;7.90;;;5.13;;
4810;SDS011;2419;51.276;6.472;2022-09-24T03:49:26;13.60;;;7.00;;
4810;SDS011;2419;51.276;6.472;2022-09-24T03:51:55;12.17;;;6.83;;
4810;SDS011;2419;51.276;6.472;2022-09-24T03:54:25;7.87;;;5.83;;
4810;SDS011;2419;51.276;6.472;2022-09-24T03:56:53;9.77;;;6.30;;
4810;SDS011;2419;51.276;6.472;2022-09-24T03:59:21;9.70;;;6.53;;
4810;SDS011;2419;51.276;6.472;2022-09-24T04:01:49;8.20;;;6.20;;
4810;SDS011;2419;51.276;6.472;2022-09-24T04:04:17;11.63;;;7.03;;
4810;SDS011;2419;51.276;6.472;2022-09-24T04:06:46;8.40;;;4.90;;
4810;SDS011;2419;51.276;6.472;2022-09-24T04:09:15;10.10;;;6.13;;
4810;SDS011;2419;51.276;6.472;2022-09-24T04:11:44;10.90;;;6.53;;
4810;SDS011;2419;51.276;6.472;2022-09-24T04:14:12;10.63;;;5.90;;
4810;SDS011;2419;51.276;6.472;2022-09-24T04:16:41;13.43;;;5.43;;
4810;SDS011;2419;51.276;6.472;2022-09-24T04:19:09;15.90;;;6.00;;
4810;SDS011;2419;51.276;6.472;2022-09-24T04:21:37;8.20;;;5.40;;
4810;SDS011;2419;51.276;6.472;2022-09-24T04:24:05;10.00;;;5.63;;
4810;SDS011;2419;51.276;6.472;2022-09-24T04:26:33;9.00;;;5.03;;
4810;SDS011;2419;51.276;6.472;2022-09-24T04:29:03;12.17;;;5.10;;
4810;SDS011;2419;51.276;6.472;2022-09-24T04:31:33;9.33;;;5.40;;
4810;SDS011;2419;51.276;6.472;2022-09-24T04:34:01;8.57;;;5.63;;
4810;SDS011;2419;51.276;6.472;2022-09-24T04:36:30;8.47;;;6.83;;
4810;SDS011;2419;51.276;6.472;2022-09-24T04:38:58;6.57;;;4.17;;
4810;SDS011;2419;51.276;6.472;2022-09-24T04:41:26;8.73;;;5.07;;
4810;SDS011;2419;51.276;6.472;2022-09-24T04:43:55;8.50;;;5.80;;
4810;SDS011;2419;51.276;6.472;2022-09-24T04:46:25;14.57;;;6.13;;
4810;SDS011;2419;51.276;6.472;2022-09-24T04:48:53;10.97;;;5.97;;
4810;SDS011;2419;51.276;6.472;2022-09-24T04:51:22;11.23;;;5.93;;
4810;SDS011;2419;51.276;6.472;2022-09-24T04:53:51;10.50;;;6.77;;
4810;SDS011;2419;51.276;6.472;2022-09-24T04:56:19;9.90;;;5.60;;
4810;SDS011;2419;51.276;6.472;2022-09-24T04:58:48;8.00;;;4.87;;
4810;SDS011;2419;51.276;6.472;2022-09-24T05:01:18;10.07;;;5.77;;
4810;SDS011;2419;51.276;6.472;2022-09-24T05:03:48;11.90;;;5.50;;
4810;SDS011;2419;51.276;6.472;2022-09-24T05:06:17;10.27;;;5.80;;
4810;SDS011;2419;51.276;6.472;2022-09-24T05:08:45;11.97;;;6.60;;
4810;SDS011;2419;51.276;6.472;2022-09-24T05:11:13;11.93;;;5.53;;
4810;SDS011;2419;51.276;6.472;2022-09-24T05:13:41;15.07;;;6.50;;
4810;SDS011;2419;51.276;6.472;2022-09-24T05:16:09;13.90;;;6.73;;
4810;SDS011;2419;51.276;6.472;2022-09-24T05:18:37;8.33;;;5.70;;
4810;SDS011;2419;51.276;6.472;2022-09-24T05:21:08;11.70;;;5.67;;
4810;SDS011;2419;51.276;6.472;2022-09-24T05:23:36;14.77;;;7.03;;
4810;SDS011;2419;51.276;6.472;2022-09-24T05:26:04;9.53;;;6.60;;
4810;SDS011;2419;51.276;6.472;2022-09-24T05:28:51;7.27;;;5.40;;
4810;SDS011;2419;51.276;6.472;2022-09-24T05:31:19;7.63;;;5.50;;
4810;SDS011;2419;51.276;6.472;2022-09-24T05:33:47;8.07;;;5.27;;
4810;SDS011;2419;51.276;6.472;2022-09-24T05:36:18;10.53;;;5.23;;
4810;SDS011;2419;51.276;6.472;2022-09-24T05:38:46;9.70;;;4.50;;
4810;SDS011;2419;51.276;6.472;2022-09-24T05:41:14;8.30;;;6.40;;
4810;SDS011;2419;51.276;6.472;2022-09-24T05:43:42;11.50;;;6.27;;
4810;SDS011;2419;51.276;6.472;2022-09-24T05:46:10;11.03;;;5.87;;
4810;SDS011;2419;51.276;6.472;2022-09-24T05:48:39;8.47;;;5.67;;
4810;SDS011;2419;51.276;6.472;2022-09-24T05:51:07;10.47;;;5.70;;
4810;SDS011;2419;51.276;6.472;2022-09-24T05:53:37;10.83;;;4.93;;
4810;SDS011;2419;51.276;6.472;2022-09-24T05:56:05;9.70;;;5.80;;
4810;SDS011;2419;51.276;6.472;2022-09-24T05:58:35;8.60;;;5.70;;
4810;SDS011;2419;51.276;6.472;2022-09-24T06:01:03;10.67;;;5.40;;
4810;SDS011;2419;51.276;6.472;2022-09-24T06:03:32;8.77;;;5.67;;
4810;SDS011;2419;51.276;6.472;2022-09-24T06:06:01;8.77;;;5.00;;
4810;SDS011;2419;51.276;6.472;2022-09-24T06:08:30;11.93;;;6.90;;
4810;SDS011;2419;51.276;6.472;2022-09-24T06:11:00;9.57;;;5.63;;
4810;SDS011;2419;51.276;6.472;2022-09-24T06:13:30;10.27;;;5.57;;
4810;SDS011;2419;51.276;6.472;2022-09-24T06:16:00;11.27;;;5.70;;
4810;SDS011;2419;51.276;6.472;2022-09-24T06:18:31;11.77;;;6.27;;
4810;SDS011;2419;51.276;6.472;2022-09-24T06:21:01;10.77;;;6.17;;
4810;SDS011;2419;51.276;6.472;2022-09-24T06:23:32;6.93;;;4.23;;
4810;SDS011;2419;51.276;6.472;2022-09-24T06:26:02;8.83;;;4.60;;
4810;SDS011;2419;51.276;6.472;2022-09-24T06:28:32;9.00;;;5.67;;
4810;SDS011;2419;51.276;6.472;2022-09-24T06:31:01;10.47;;;5.27;;
4810;SDS011;2419;51.276;6.472;2022-09-24T06:33:29;9.20;;;5.30;;
4810;SDS011;2419;51.276;6.472;2022-09-24T06:35:58;7.90;;;5.33;;
4810;SDS011;2419;51.276;6.472;2022-09-24T06:38:27;10.50;;;5.90;;
4810;SDS011;2419;51.276;6.472;2022-09-24T06:40:57;7.33;;;5.33;;
4810;SDS011;2419;51.276;6.472;2022-09-24T06:43:28;8.47;;;5.50;;
4810;SDS011;2419;51.276;6.472;2022-09-24T06:45:57;10.23;;;5.30;;
4810;SDS011;2419;51.276;6.472;2022-09-24T06:48:26;12.80;;;6.23;;
4810;SDS011;2419;51.276;6.472;2022-09-24T06:50:56;7.40;;;5.73;;
4810;SDS011;2419;51.276;6.472;2022-09-24T06:53:24;9.93;;;6.13;;
4810;SDS011;2419;51.276;6.472;2022-09-24T06:55:55;9.00;;;6.03;;
4810;SDS011;2419;51.276;6.472;2022-09-24T06:58:25;8.30;;;5.80;;
4810;SDS011;2419;51.276;6.472;2022-09-24T07:00:55;13.60;;;6.27;;
4810;SDS011;2419;51.276;6.472;2022-09-24T07:03:25;8.83;;;4.73;;
4810;SDS011;2419;51.276;6.472;2022-09-24T07:05:54;10.67;;;6.03;;
4810;SDS011;2419;51.276;6.472;2022-09-24T07:08:25;15.80;;;6.57;;
4810;SDS011;2419;51.276;6.472;2022-09-24T07:10:54;9.47;;;4.70;;
4810;SDS011;2419;51.276;6.472;2022-09-24T07:13:22;11.90;;;5.43;;
4810;SDS011;2419;51.276;6.472;2022-09-24T07:15:50;9.60;;;5.90;;
4810;SDS011;2419;51.276;6.472;2022-09-24T07:18:21;8.07;;;5.30;;
4810;SDS011;2419;51.276;6.472;2022-09-24T07:20:52;7.83;;;4.83;;
4810;SDS011;2419;51.276;6.472;2022-09-24T07:23:21;12.83;;;5.50;;
4810;SDS011;2419;51.276;6.472;2022-09-24T07:25:53;9.57;;;5.63;;
4810;SDS011;2419;51.276;6.472;2022-09-24T07:28:22;12.53;;;5.40;;
4810;SDS011;2419;51.276;6.472;2022-09-24T07:31:00;7.73;;;5.33;;
4810;SDS011;2419;51.276;6.472;2022-09-24T07:33:31;8.83;;;4.60;;
4810;SDS011;2419;51.276;6.472;2022-09-24T07:36:02;8.90;;;4.30;;
4810;SDS011;2419;51.276;6.472;2022-09-24T07:38:32;8.50;;;4.97;;
4810;SDS011;2419;51.276;6.472;2022-09-24T07:41:02;8.80;;;4.80;;
4810;SDS011;2419;51.276;6.472;2022-09-24T07:43:31;8.70;;;5.60;;
4810;SDS011;2419;51.276;6.472;2022-09-24T07:45:59;9.93;;;5.67;;
4810;SDS011;2419;51.276;6.472;2022-09-24T07:48:28;9.47;;;5.20;;
4810;SDS011;2419;51.276;6.472;2022-09-24T07:50:58;11.37;;;5.30;;
4810;SDS011;2419;51.276;6.472;2022-09-24T07:53:26;8.87;;;4.93;;
4810;SDS011;2419;51.276;6.472;2022-09-24T07:55:57;9.40;;;5.70;;
4810;SDS011;2419;51.276;6.472;2022-09-24T07:58:25;8.10;;;5.53;;
4810;SDS011;2419;51.276;6.472;2022-09-24T08:00:55;6.67;;;4.10;;
4810;SDS011;2419;51.276;6.472;2022-09-24T08:03:25;6.93;;;4.33;;
4810;SDS011;2419;51.276;6.472;2022-09-24T08:05:53;7.80;;;5.00;;
4810;SDS011;2419;51.276;6.472;2022-09-24T08:08:25;6.40;;;3.80;;
4810;SDS011;2419;51.276;6.472;2022-09-24T08:10:54;6.00;;;4.10;;
4810;SDS011;2419;51.276;6.472;2022-09-24T08:13:22;6.90;;;4.43;;
4810;SDS011;2419;51.276;6.472;2022-09-24T08:15:56;5.53;;;3.70;;
4810;SDS011;2419;51.276;6.472;2022-09-24T08:18:25;5.60;;;3.97;;
4810;SDS011;2419;51.276;6.472;2022-09-24T08:20:55;4.00;;;3.47;;
4810;SDS011;2419;51.276;6.472;2022-09-24T08:23:27;3.97;;;3.27;;
4810;SDS011;2419;51.276;6.472;2022-09-24T08:25:56;6.63;;;3.70;;
4810;SDS011;2419;51.276;6.472;2022-09-24T08:28:25;6.90;;;3.77;;
4810;SDS011;2419;51.276;6.472;2022-09-24T08:30:56;4.63;;;3.50;;
4810;SDS011;2419;51.276;6.472;2022-09-24T08:33:25;4.50;;;3.33;;
4810;SDS011;2419;51.276;6.472;2022-09-24T08:35:53;4.30;;;2.80;;
4810;SDS011;2419;51.276;6.472;2022-09-24T08:38:21;5.07;;;3.57;;
4810;SDS011;2419;51.276;6.472;2022-09-24T08:40:52;8.07;;;4.50;;
4810;SDS011;2419;51.276;6.472;2022-09-24T08:43:29;11.20;;;3.90;;
4810;SDS011;2419;51.276;6.472;2022-09-24T08:46:13;5.90;;;4.10;;
4810;SDS011;2419;51.276;6.472;2022-09-24T08:49:02;6.60;;;4.07;;
4810;SDS011;2419;51.276;6.472;2022-09-24T08:51:34;8.23;;;3.67;;
4810;SDS011;2419;51.276;6.472;2022-09-24T08:54:11;6.27;;;3.33;;
4810;SDS011;2419;51.276;6.472;2022-09-24T08:56:43;5.03;;;3.90;;
4810;SDS011;2419;51.276;6.472;2022-09-24T08:59:17;10.77;;;3.70;;
4810;SDS011;2419;51.276;6.472;2022-09-24T09:01:54;4.87;;;3.73;;
4810;SDS011;2419;51.276;6.472;2022-09-24T09:04:29;5.57;;;3.93;;
4810;SDS011;2419;51.276;6.472;2022-09-24T09:07:07;5.37;;;3.53;;
4810;SDS011;2419;51.276;6.472;2022-09-24T09:09:42;6.40;;;3.93;;
4810;SDS011;2419;51.276;6.472;2022-09-24T09:12:17;7.93;;;3.67;;
4810;SDS011;2419;51.276;6.472;2022-09-24T09:14:50;7.20;;;4.20;;
4810;SDS011;2419;51.276;6.472;2022-09-24T09:17:35;5.90;;;3.70;;
4810;SDS011;2419;51.276;6.472;2022-09-24T09:20:13;5.70;;;3.90;;
4810;SDS011;2419;51.276;6.472;2022-09-24T09:22:46;10.23;;;4.20;;
4810;SDS011;2419;51.276;6.472;2022-09-24T09:25:18;5.03;;;3.70;;
4810;SDS011;2419;51.276;6.472;2022-09-24T09:27:51;9.40;;;4.30;;
4810;SDS011;2419;51.276;6.472;2022-09-24T09:30:23;4.90;;;3.50;;
4810;SDS011;2419;51.276;6.472;2022-09-24T09:33:01;5.17;;;3.50;;
4810;SDS011;2419;51.276;6.472;2022-09-24T09:35:43;7.60;;;3.90;;
4810;SDS011;2419;51.276;6.472;2022-09-24T09:38:17;3.40;;;2.60;;
4810;SDS011;2419;51.276;6.472;2022-09-24T09:40:51;5.97;;;3.43;;
4810;SDS011;2419;51.276;6.472;2022-09-24T09:43:26;6.33;;;3.93;;
4810;SDS011;2419;51.276;6.472;2022-09-24T09:45:57;4.83;;;3.33;;
4810;SDS011;2419;51.276;6.472;2022-09-24T09:48:37;5.17;;;3.20;;
4810;SDS011;2419;51.276;6.472;2022-09-24T09:51:12;7.17;;;3.40;;
4810;SDS011;2419;51.276;6.472;2022-09-24T09:53:52;5.73;;;3.47;;
4810;SDS011;2419;51.276;6.472;2022-09-24T09:56:22;6.30;;;3.50;;
4810;SDS011;2419;51.276;6.472;2022-09-24T09:59:01;4.20;;;3.00;;
4810;SDS011;2419;51.276;6.472;2022-09-24T10:01:33;7.30;;;4.27;;
4810;SDS011;2419;51.276;6.472;2022-09-24T10:04:03;5.93;;;3.87;;
4810;SDS011;2419;51.276;6.472;2022-09-24T10:06:32;9.30;;;3.90;;
4810;SDS011;2419;51.276;6.472;2022-09-24T10:09:06;6.10;;;3.77;;
4810;SDS011;2419;51.276;6.472;2022-09-24T10:11:38;4.20;;;3.07;;
4810;SDS011;2419;51.276;6.472;2022-09-24T10:14:10;6.20;;;3.97;;
4810;SDS011;2419;51.276;6.472;2022-09-24T10:16:41;4.53;;;3.17;;
4810;SDS011;2419;51.276;6.472;2022-09-24T10:19:14;5.47;;;3.67;;
4810;SDS011;2419;51.276;6.472;2022-09-24T10:21:45;5.03;;;3.63;;
4810;SDS011;2419;51.276;6.472;2022-09-24T10:24:14;3.93;;;3.40;;
4810;SDS011;2419;51.276;6.472;2022-09-24T10:26:45;4.90;;;3.77;;
4810;SDS011;2419;51.276;6.472;2022-09-24T10:29:17;4.40;;;2.80;;
4810;SDS011;2419;51.276;6.472;2022-09-24T10:32:05;4.27;;;2.83;;
4810;SDS011;2419;51.276;6.472;2022-09-24T10:34:40;2.60;;;2.33;;
4810;SDS011;2419;51.276;6.472;2022-09-24T10:37:12;3.70;;;2.70;;
4810;SDS011;2419;51.276;6.472;2022-09-24T10:39:41;6.23;;;3.67;;
4810;SDS011;2419;51.276;6.472;2022-09-24T10:42:21;4.20;;;2.80;;
4810;SDS011;2419;51.276;6.472;2022-09-24T10:44:52;5.43;;;2.90;;
4810;SDS011;2419;51.276;6.472;2022-09-24T10:47:24;3.80;;;2.40;;
4810;SDS011;2419;51.276;6.472;2022-09-24T10:49:58;5.97;;;2.83;;
4810;SDS011;2419;51.276;6.472;2022-09-24T10:52:45;4.57;;;2.60;;
4810;SDS011;2419;51.276;6.472;2022-09-24T10:55:27;8.70;;;3.20;;
4810;SDS011;2419;51.276;6.472;2022-09-24T10:58:06;3.10;;;2.60;;
4810;SDS011;2419;51.276;6.472;2022-09-24T11:00:57;6.07;;;3.57;;
4810;SDS011;2419;51.276;6.472;2022-09-24T11:03:40;4.30;;;2.80;;
4810;SDS011;2419;51.276;6.472;2022-09-24T11:06:22;5.10;;;3.33;;
4810;SDS011;2419;51.276;6.472;2022-09-24T11:09:11;6.30;;;3.20;;
4810;SDS011;2419;51.276;6.472;2022-09-24T11:11:52;5.27;;;3.03;;
4810;SDS011;2419;51.276;6.472;2022-09-24T11:14:38;3.60;;;2.87;;
4810;SDS011;2419;51.276;6.472;2022-09-24T11:17:26;4.33;;;3.00;;
4810;SDS011;2419;51.276;6.472;2022-09-24T11:23:05;5.10;;;2.50;;
4810;SDS011;2419;51.276;6.472;2022-09-24T11:25:50;3.53;;;2.40;;
4810;SDS011;2419;51.276;6.472;2022-09-24T11:28:42;3.23;;;2.20;;
4810;SDS011;2419;51.276;6.472;2022-09-24T11:31:26;3.47;;;2.27;;
4810;SDS011;2419;51.276;6.472;2022-09-24T11:34:09;2.57;;;2.33;;
4810;SDS011;2419;51.276;6.472;2022-09-24T11:36:56;3.10;;;2.20;;
4810;SDS011;2419;51.276;6.472;2022-09-24T11:39:38;4.17;;;2.60;;
4810;SDS011;2419;51.276;6.472;2022-09-24T11:42:20;4.77;;;2.40;;
4810;SDS011;2419;51.276;6.472;2022-09-24T11:45:03;3.83;;;2.70;;
4810;SDS011;2419;51.276;6.472;2022-09-24T11:47:47;4.13;;;2.73;;
4810;SDS011;2419;51.276;6.472;2022-09-24T11:50:34;5.43;;;2.23;;
4810;SDS011;2419;51.276;6.472;2022-09-24T11:53:14;4.00;;;2.90;;
4810;SDS011;2419;51.276;6.472;2022-09-24T11:55:53;2.73;;;2.23;;
4810;SDS011;2419;51.276;6.472;2022-09-24T11:58:26;2.70;;;2.00;;
4810;SDS011;2419;51.276;6.472;2022-09-24T12:00:57;3.40;;;2.40;;
4810;SDS011;2419;51.276;6.472;2022-09-24T12:03:32;3.17;;;2.20;;
4810;SDS011;2419;51.276;6.472;2022-09-24T12:06:09;3.70;;;2.80;;
4810;SDS011;2419;51.276;6.472;2022-09-24T12:08:40;4.17;;;2.30;;
4810;SDS011;2419;51.276;6.472;2022-09-24T12:11:14;4.83;;;2.27;;
4810;SDS011;2419;51.276;6.472;2022-09-24T12:13:47;3.20;;;2.47;;
4810;SDS011;2419;51.276;6.472;2022-09-24T12:16:19;2.90;;;2.07;;
4810;SDS011;2419;51.276;6.472;2022-09-24T12:18:51;4.33;;;3.00;;
4810;SDS011;2419;51.276;6.472;2022-09-24T12:21:25;5.47;;;3.07;;
4810;SDS011;2419;51.276;6.472;2022-09-24T12:24:01;2.57;;;2.20;;
4810;SDS011;2419;51.276;6.472;2022-09-24T12:26:32;2.57;;;1.90;;
4810;SDS011;2419;51.276;6.472;2022-09-24T12:29:07;3.10;;;2.30;;
4810;SDS011;2419;51.276;6.472;2022-09-24T12:32:10;3.60;;;2.50;;
4810;SDS011;2419;51.276;6.472;2022-09-24T12:35:06;4.73;;;2.50;;
4810;SDS011;2419;51.276;6.472;2022-09-24T12:37:39;3.10;;;2.37;;
4810;SDS011;2419;51.276;6.472;2022-09-24T12:40:15;3.67;;;2.60;;
4810;SDS011;2419;51.276;6.472;2022-09-24T12:42:54;5.23;;;2.60;;
4810;SDS011;2419;51.276;6.472;2022-09-24T12:45:25;4.80;;;2.70;;
4810;SDS011;2419;51.276;6.472;2022-09-24T12:47:55;4.00;;;2.73;;
4810;SDS011;2419;51.276;6.472;2022-09-24T12:50:27;3.27;;;2.13;;
4810;SDS011;2419;51.276;6.472;2022-09-24T12:52:59;3.97;;;2.30;;
4810;SDS011;2419;51.276;6.472;2022-09-24T12:55:28;3.93;;;2.70;;
4810;SDS011;2419;51.276;6.472;2022-09-24T12:58:02;4.40;;;2.97;;
4810;SDS011;2419;51.276;6.472;2022-09-24T13:00:36;4.53;;;3.00;;
4810;SDS011;2419;51.276;6.472;2022-09-24T13:03:29;3.90;;;2.50;;
4810;SDS011;2419;51.276;6.472;2022-09-24T13:05:59;4.23;;;3.10;;
4810;SDS011;2419;51.276;6.472;2022-09-24T13:08:35;3.47;;;2.60;;
4810;SDS011;2419;51.276;6.472;2022-09-24T13:13:56;3.43;;;2.13;;
4810;SDS011;2419;51.276;6.472;2022-09-24T13:16:28;4.93;;;2.70;;
4810;SDS011;2419;51.276;6.472;2022-09-24T13:18:58;5.03;;;2.87;;
4810;SDS011;2419;51.276;6.472;2022-09-24T13:21:28;4.57;;;2.77;;
4810;SDS011;2419;51.276;6.472;2022-09-24T13:23:58;4.47;;;3.00;;
4810;SDS011;2419;51.276;6.472;2022-09-24T13:26:38;4.10;;;2.73;;
4810;SDS011;2419;51.276;6.472;2022-09-24T13:29:20;3.47;;;2.43;;
4810;SDS011;2419;51.276;6.472;2022-09-24T13:31:52;5.20;;;2.80;;
4810;SDS011;2419;51.276;6.472;2022-09-24T13:34:26;5.27;;;3.33;;
4810;SDS011;2419;51.276;6.472;2022-09-24T13:36:57;4.87;;;3.20;;
4810;SDS011;2419;51.276;6.472;2022-09-24T13:39:34;5.53;;;3.20;;
4810;SDS011;2419;51.276;6.472;2022-09-24T13:42:13;3.83;;;2.83;;
4810;SDS011;2419;51.276;6.472;2022-09-24T13:44:46;6.07;;;2.87;;
4810;SDS011;2419;51.276;6.472;2022-09-24T13:47:20;3.13;;;2.77;;
4810;SDS011;2419;51.276;6.472;2022-09-24T13:49:55;8.00;;;3.47;;
4810;SDS011;2419;51.276;6.472;2022-09-24T13:52:31;4.00;;;2.67;;
4810;SDS011;2419;51.276;6.472;2022-09-24T13:55:07;4.73;;;3.17;;
4810;SDS011;2419;51.276;6.472;2022-09-24T13:57:43;3.70;;;2.60;;
4810;SDS011;2419;51.276;6.472;2022-09-24T14:00:13;5.70;;;3.10;;
4810;SDS011;2419;51.276;6.472;2022-09-24T14:02:51;5.17;;;3.13;;
4810;SDS011;2419;51.276;6.472;2022-09-24T14:05:22;4.23;;;3.13;;
4810;SDS011;2419;51.276;6.472;2022-09-24T14:07:51;5.77;;;4.43;;
4810;SDS011;2419;51.276;6.472;2022-09-24T14:10:26;5.80;;;3.40;;
4810;SDS011;2419;51.276;6.472;2022-09-24T14:13:01;4.50;;;3.47;;
4810;SDS011;2419;51.276;6.472;2022-09-24T14:15:52;4.60;;;3.10;;
4810;SDS011;2419;51.276;6.472;2022-09-24T14:18:22;3.70;;;3.00;;
4810;SDS011;2419;51.276;6.472;2022-09-24T14:20:52;5.57;;;3.60;;
4810;SDS011;2419;51.276;6.472;2022-09-24T14:23:25;4.07;;;2.90;;
4810;SDS011;2419;51.276;6.472;2022-09-24T14:25:58;4.07;;;2.80;;
4810;SDS011;2419;51.276;6.472;2022-09-24T14:28:27;5.00;;;3.00;;
4810;SDS011;2419;51.276;6.472;2022-09-24T14:30:58;5.67;;;3.20;;
4810;SDS011;2419;51.276;6.472;2022-09-24T14:33:29;4.40;;;3.33;;
4810;SDS011;2419;51.276;6.472;2022-09-24T14:35:59;4.57;;;2.60;;
4810;SDS011;2419;51.276;6.472;2022-09-24T14:38:30;5.83;;;3.37;;
4810;SDS011;2419;51.276;6.472;2022-09-24T14:41:03;4.80;;;3.43;;
4810;SDS011;2419;51.276;6.472;2022-09-24T14:43:36;4.27;;;3.20;;
4810;SDS011;2419;51.276;6.472;2022-09-24T14:46:12;5.60;;;3.43;;
4810;SDS011;2419;51.276;6.472;2022-09-24T14:48:45;5.17;;;3.10;;
4810;SDS011;2419;51.276;6.472;2022-09-24T14:51:21;3.70;;;2.80;;
4810;SDS011;2419;51.276;6.472;2022-09-24T14:53:59;4.57;;;3.30;;
4810;SDS011;2419;51.276;6.472;2022-09-24T14:56:30;3.90;;;3.10;;
4810;SDS011;2419;51.276;6.472;2022-09-24T14:59:00;5.40;;;3.10;;
4810;SDS011;2419;51.276;6.472;2022-09-24T15:01:29;4.40;;;3.67;;
4810;SDS011;2419;51.276;6.472;2022-09-24T15:03:59;5.83;;;3.63;;
4810;SDS011;2419;51.276;6.472;2022-09-24T15:06:30;6.97;;;3.70;;
4810;SDS011;2419;51.276;6.472;2022-09-24T15:09:02;5.40;;;3.00;;
4810;SDS011;2419;51.276;6.472;2022-09-24T15:11:34;5.83;;;3.93;;
4810;SDS011;2419;51.276;6.472;2022-09-24T15:14:11;4.47;;;3.37;;
4810;SDS011;2419;51.276;6.472;2022-09-24T15:16:50;4.50;;;3.43;;
4810;SDS011;2419;51.276;6.472;2022-09-24T15:19:19;6.27;;;3.43;;
4810;SDS011;2419;51.276;6.472;2022-09-24T15:21:49;4.33;;;3.30;;
4810;SDS011;2419;51.276;6.472;2022-09-24T15:24:18;4.63;;;3.40;;
4810;SDS011;2419;51.276;6.472;2022-09-24T15:26:59;5.07;;;3.40;;
4810;SDS011;2419;51.276;6.472;2022-09-24T15:29:28;3.93;;;3.20;;
4810;SDS011;2419;51.276;6.472;2022-09-24T15:31:57;5.30;;;3.40;;
4810;SDS011;2419;51.276;6.472;2022-09-24T15:34:25;8.10;;;3.30;;
4810;SDS011;2419;51.276;6.472;2022-09-24T15:36:54;5.33;;;3.63;;
4810;SDS011;2419;51.276;6.472;2022-09-24T15:39:25;7.63;;;3.97;;
4810;SDS011;2419;51.276;6.472;2022-09-24T15:41:56;7.47;;;4.17;;
4810;SDS011;2419;51.276;6.472;2022-09-24T15:44:24;6.03;;;3.87;;
4810;SDS011;2419;51.276;6.472;2022-09-24T15:46:59;7.20;;;4.27;;
4810;SDS011;2419;51.276;6.472;2022-09-24T15:49:27;8.03;;;4.83;;
4810;SDS011;2419;51.276;6.472;2022-09-24T15:51:56;6.50;;;4.73;;
4810;SDS011;2419;51.276;6.472;2022-09-24T15:54:28;6.33;;;4.37;;